Time;durP1;ratioP1;P1;durP2;ratioP2;P2;SDS_P1;SDS_P2;PMS_P1;PMS_P2;Temp;Humidity;BMP_temperature;BMP_pressure;BME280_temperature;BME280_humidity;BME280_pressure;Samples;Min_cycle;Max_cycle;Signal;HPM_P1;HPM_P2
2022/01/02 00:01:38;;;;;;;8.40;7.30;;;5.80;99.90;;;;;;5091182;28;20166;-84
2022/01/02 00:04:04;;;;;;;9.07;6.77;;;5.80;99.90;;;;;;5091166;28;20181;-84
2022/01/02 00:06:36;;;;;;;7.17;6.50;;;5.90;99.90;;;;;;5093484;28;20170;-87
2022/01/02 00:09:05;;;;;;;7.87;6.77;;;5.80;99.90;;;;;;5113174;28;20293;-89
2022/01/02 00:11:32;;;;;;;6.93;6.23;;;5.80;99.90;;;;;;5107553;28;20176;-85
2022/01/02 00:14:06;;;;;;;7.47;6.70;;;5.90;99.90;;;;;;5093580;28;20179;-85
2022/01/02 00:16:35;;;;;;;8.13;6.87;;;6.00;99.90;;;;;;5092025;28;20158;-86
2022/01/02 00:19:06;;;;;;;7.20;6.50;;;6.00;99.90;;;;;;5091633;28;20182;-88
2022/01/02 00:21:33;;;;;;;6.60;6.00;;;6.10;99.90;;;;;;5090032;28;20502;-86
2022/01/02 00:24:07;;;;;;;9.17;6.50;;;6.20;99.90;;;;;;5090549;28;20185;-84
2022/01/02 00:26:38;;;;;;;7.00;6.30;;;6.20;99.90;;;;;;5103837;28;20217;-91
2022/01/02 00:29:06;;;;;;;8.27;6.20;;;6.20;99.90;;;;;;5112203;28;20220;-94
2022/01/02 00:31:33;;;;;;;8.43;6.40;;;6.10;99.90;;;;;;5112267;28;20174;-93
2022/01/02 00:34:01;;;;;;;8.03;6.20;;;6.10;99.90;;;;;;5113531;28;20664;-91
2022/01/02 00:36:26;;;;;;;6.80;6.20;;;6.00;99.90;;;;;;5114098;28;20197;-94
2022/01/02 00:38:53;;;;;;;6.97;6.20;;;6.00;99.90;;;;;;5113723;28;20206;-94
2022/01/02 00:41:32;;;;;;;7.63;6.87;;;6.00;99.90;;;;;;5113980;28;20169;-94
2022/01/02 00:44:12;;;;;;;6.77;6.07;;;6.00;99.90;;;;;;5099392;28;20715;-93
2022/01/02 00:46:57;;;;;;;7.30;6.27;;;5.90;99.90;;;;;;5128574;28;20174;-90
2022/01/02 00:49:26;;;;;;;6.80;6.10;;;5.90;99.90;;;;;;5133847;28;20226;-92
2022/01/02 00:52:10;;;;;;;7.60;6.47;;;5.90;99.90;;;;;;5109520;28;20173;-88
2022/01/02 00:54:38;;;;;;;7.37;6.60;;;5.80;99.90;;;;;;5125816;28;20169;-86
2022/01/02 00:57:08;;;;;;;8.73;7.57;;;5.80;99.90;;;;;;5119558;28;20173;-88
2022/01/02 00:59:48;;;;;;;11.50;8.77;;;5.70;99.90;;;;;;5129295;28;20195;-85
2022/01/02 01:02:23;;;;;;;11.27;9.60;;;5.60;99.90;;;;;;5131253;28;20165;-84
2022/01/02 01:04:50;;;;;;;13.67;11.83;;;5.50;99.90;;;;;;5122830;28;20177;-84
2022/01/02 01:07:18;;;;;;;13.67;11.13;;;5.40;99.90;;;;;;5112949;28;20527;-85
2022/01/02 01:09:45;;;;;;;16.83;11.90;;;5.20;99.90;;;;;;5115002;28;20679;-84
2022/01/02 01:12:11;;;;;;;14.17;11.50;;;5.10;99.90;;;;;;5110406;28;20319;-84
2022/01/02 01:14:38;;;;;;;17.47;13.07;;;5.00;99.90;;;;;;5092368;28;20658;-87
2022/01/02 01:17:04;;;;;;;15.00;12.77;;;4.90;99.90;;;;;;5110356;28;20633;-85
2022/01/02 01:19:30;;;;;;;18.87;12.47;;;4.80;99.90;;;;;;5110288;28;20173;-86
2022/01/02 01:21:55;;;;;;;16.83;13.63;;;4.70;99.90;;;;;;5110366;28;20170;-85
2022/01/02 01:24:21;;;;;;;18.80;14.87;;;4.80;99.90;;;;;;5110172;28;20173;-85
2022/01/02 01:26:50;;;;;;;18.63;14.63;;;4.70;99.90;;;;;;5110108;28;20322;-85
2022/01/02 01:29:16;;;;;;;16.37;12.97;;;4.60;99.90;;;;;;5110255;28;20672;-87
2022/01/02 01:31:43;;;;;;;15.50;12.70;;;4.50;99.90;;;;;;5110350;28;20596;-84
2022/01/02 01:34:09;;;;;;;16.90;13.37;;;4.60;99.90;;;;;;5112871;28;20292;-84
2022/01/02 01:36:35;;;;;;;19.03;14.07;;;4.60;99.90;;;;;;5114442;28;20675;-87
2022/01/02 01:39:01;;;;;;;18.77;13.47;;;4.50;99.90;;;;;;5114305;28;20708;-86
2022/01/02 01:41:34;;;;;;;18.23;13.53;;;4.40;99.90;;;;;;5114823;28;20213;-85
2022/01/02 01:46:39;;;;;;;17.27;13.80;;;4.30;99.90;;;;;;5114530;28;20171;-85
2022/01/02 01:49:17;;;;;;;17.10;13.37;;;4.30;99.90;;;;;;5114295;28;20544;-85
2022/01/02 01:51:43;;;;;;;15.93;13.10;;;4.30;99.90;;;;;;5115357;28;20176;-84
2022/01/02 01:54:10;;;;;;;17.97;13.83;;;4.30;99.90;;;;;;5117745;28;20734;-86
2022/01/02 01:56:37;;;;;;;17.30;13.53;;;4.20;99.90;;;;;;5139700;28;20225;-91
2022/01/02 01:59:03;;;;;;;16.17;14.00;;;4.20;99.90;;;;;;5131746;28;20169;-93
2022/01/02 02:01:30;;;;;;;18.10;13.37;;;4.20;99.90;;;;;;5116970;28;20186;-93
2022/01/02 02:03:56;;;;;;;17.33;13.50;;;4.20;99.90;;;;;;5116621;28;20173;-94
2022/01/02 02:06:22;;;;;;;17.57;13.30;;;4.20;99.90;;;;;;5115819;28;20182;-93
2022/01/02 02:08:50;;;;;;;19.53;13.20;;;4.20;99.90;;;;;;5116072;28;20208;-94
2022/01/02 02:11:16;;;;;;;20.30;13.93;;;4.20;99.90;;;;;;5097840;28;20306;-92
2022/01/02 02:13:45;;;;;;;16.40;12.60;;;4.20;99.90;;;;;;5116349;28;20170;-91
2022/01/02 02:16:11;;;;;;;17.53;13.60;;;4.20;99.90;;;;;;5116397;28;20174;-94
2022/01/02 02:18:36;;;;;;;17.43;13.50;;;4.20;99.90;;;;;;5116554;28;20172;-95
2022/01/02 02:21:02;;;;;;;18.73;13.20;;;4.20;99.90;;;;;;5116533;28;20179;-93
2022/01/02 02:23:28;;;;;;;15.43;12.63;;;4.20;99.90;;;;;;5116797;28;20181;-93
2022/01/02 02:25:54;;;;;;;12.67;11.33;;;4.30;99.90;;;;;;5116625;28;20240;-94
2022/01/02 02:28:25;;;;;;;14.57;12.57;;;4.30;99.90;;;;;;5115583;28;20205;-91
2022/01/02 02:30:52;;;;;;;16.67;12.53;;;4.20;99.90;;;;;;5114249;28;20188;-92
2022/01/02 02:33:18;;;;;;;12.93;11.47;;;4.20;99.90;;;;;;5114698;28;20173;-89
2022/01/02 02:35:46;;;;;;;14.40;11.70;;;4.10;99.90;;;;;;5116041;28;20272;-92
2022/01/02 02:38:14;;;;;;;9.67;8.67;;;4.10;99.90;;;;;;5115276;28;20182;-84
2022/01/02 02:40:41;;;;;;;8.30;7.40;;;4.10;99.90;;;;;;5113301;28;20200;-85
2022/01/02 02:43:36;;;;;;;12.80;8.43;;;4.10;99.90;;;;;;5113137;28;20650;-85
2022/01/02 02:49:02;;;;;;;9.90;7.90;;;4.30;99.90;;;;;;5113061;28;20382;-85
2022/01/02 02:51:54;;;;;;;10.57;9.43;;;4.20;99.90;;;;;;5112778;28;20640;-84
2022/01/02 02:54:22;;;;;;;11.47;9.70;;;4.20;99.90;;;;;;5094460;28;20181;-85
2022/01/02 02:56:59;;;;;;;11.43;9.90;;;4.20;99.90;;;;;;5094812;28;20257;-85
2022/01/02 02:59:27;;;;;;;13.60;10.07;;;4.20;99.90;;;;;;5094475;28;20180;-88
2022/01/02 03:01:54;;;;;;;13.07;9.90;;;4.20;99.90;;;;;;5094131;28;20273;-84
2022/01/02 03:04:21;;;;;;;11.20;9.67;;;4.10;99.90;;;;;;5112088;28;20665;-85
2022/01/02 03:06:47;;;;;;;12.43;10.37;;;4.20;99.90;;;;;;5094029;28;20173;-85
2022/01/02 03:09:16;;;;;;;12.00;9.97;;;4.10;99.90;;;;;;5112348;28;20719;-86
2022/01/02 03:11:42;;;;;;;13.33;10.80;;;4.00;99.90;;;;;;5093994;28;20187;-85
2022/01/02 03:14:12;;;;;;;13.33;10.43;;;4.00;99.90;;;;;;5112532;28;20170;-85
2022/01/02 03:16:38;;;;;;;12.07;10.47;;;4.00;99.90;;;;;;5112417;28;20533;-86
2022/01/02 03:19:04;;;;;;;12.07;9.63;;;3.90;99.90;;;;;;5112403;28;20570;-85
2022/01/02 03:21:30;;;;;;;12.23;9.43;;;3.90;99.90;;;;;;5112356;28;20170;-86
2022/01/02 03:23:55;;;;;;;11.47;9.27;;;3.90;99.90;;;;;;5112316;28;20198;-85
2022/01/02 03:26:21;;;;;;;9.87;8.80;;;3.90;99.90;;;;;;5090298;28;20746;-84
2022/01/02 03:28:47;;;;;;;9.27;7.80;;;3.90;99.90;;;;;;5091915;28;20277;-85
2022/01/02 03:31:14;;;;;;;10.13;9.07;;;3.90;99.90;;;;;;5090707;28;20777;-85
2022/01/02 03:33:40;;;;;;;12.27;10.00;;;4.00;99.90;;;;;;5092001;28;20189;-84
2022/01/02 03:36:06;;;;;;;11.87;10.50;;;4.00;99.90;;;;;;5091906;28;20907;-84
2022/01/02 03:38:32;;;;;;;13.03;10.97;;;3.90;99.90;;;;;;5093835;28;20191;-84
2022/01/02 03:40:58;;;;;;;11.83;10.47;;;3.90;99.90;;;;;;5103792;28;20169;-84
2022/01/02 03:43:23;;;;;;;15.53;11.07;;;3.90;99.90;;;;;;5107370;28;20188;-85
2022/01/02 03:45:49;;;;;;;13.97;11.43;;;3.80;99.90;;;;;;5103002;28;20187;-94
2022/01/02 03:48:15;;;;;;;12.87;11.40;;;3.80;99.90;;;;;;5094286;28;20254;-94
2022/01/02 03:50:41;;;;;;;15.67;12.37;;;3.70;99.90;;;;;;5093252;28;20199;-94
2022/01/02 03:53:07;;;;;;;15.33;12.10;;;3.80;99.90;;;;;;5096140;28;20232;-93
2022/01/02 03:55:35;;;;;;;17.43;12.13;;;3.70;99.90;;;;;;5095115;28;20639;-93
2022/01/02 03:58:01;;;;;;;17.87;11.77;;;3.80;99.90;;;;;;5094100;28;20177;-93
2022/01/02 04:00:27;;;;;;;17.13;12.50;;;3.80;99.90;;;;;;5094282;28;20199;-93
2022/01/02 04:02:53;;;;;;;15.60;12.70;;;3.80;99.90;;;;;;5096951;28;20182;-94
2022/01/02 04:05:19;;;;;;;14.67;12.20;;;3.70;99.90;;;;;;5100159;28;20174;-84
2022/01/02 04:07:46;;;;;;;15.23;12.20;;;3.70;99.90;;;;;;5112586;28;20173;-93
2022/01/02 04:10:14;;;;;;;16.90;11.87;;;3.70;99.90;;;;;;5108563;28;20194;-92
2022/01/02 04:12:42;;;;;;;14.97;12.70;;;3.60;99.90;;;;;;5098397;28;20168;-87
2022/01/02 04:15:09;;;;;;;18.40;12.37;;;3.50;99.90;;;;;;5091145;28;20181;-92
2022/01/02 04:17:36;;;;;;;17.43;11.80;;;3.50;99.90;;;;;;5092203;28;20641;-90
2022/01/02 04:20:05;;;;;;;14.43;11.50;;;3.50;99.90;;;;;;5092579;28;20176;-88
2022/01/02 04:22:31;;;;;;;15.10;11.93;;;3.50;99.90;;;;;;5093887;28;20174;-85
2022/01/02 04:24:57;;;;;;;15.53;12.60;;;3.50;99.90;;;;;;5095120;28;20197;-85
2022/01/02 04:27:24;;;;;;;14.50;11.43;;;3.50;99.90;;;;;;5113725;28;20759;-91
2022/01/02 04:29:50;;;;;;;13.90;11.50;;;3.50;99.90;;;;;;5112952;28;20229;-88
2022/01/02 04:32:17;;;;;;;17.03;12.77;;;3.50;99.90;;;;;;5111270;28;20748;-85
2022/01/02 04:34:42;;;;;;;14.37;11.60;;;3.50;99.90;;;;;;5111343;28;20246;-84
2022/01/02 04:37:10;;;;;;;13.60;11.63;;;3.40;99.90;;;;;;5110672;28;20168;-84
2022/01/02 04:39:36;;;;;;;14.23;11.63;;;3.40;99.90;;;;;;5110906;28;20652;-84
2022/01/02 04:42:02;;;;;;;13.30;11.73;;;3.40;99.90;;;;;;5111301;28;20174;-85
2022/01/02 04:44:28;;;;;;;13.90;11.57;;;3.40;99.90;;;;;;5110839;28;20180;-84
2022/01/02 04:46:54;;;;;;;14.90;11.50;;;3.40;99.90;;;;;;5092362;28;20205;-85
2022/01/02 04:49:20;;;;;;;16.07;12.30;;;3.30;99.90;;;;;;5110572;28;20208;-84
2022/01/02 04:51:46;;;;;;;16.93;12.13;;;3.40;99.90;;;;;;5110559;28;20169;-85
2022/01/02 04:54:12;;;;;;;13.83;12.20;;;3.30;99.90;;;;;;5110621;28;20185;-84
2022/01/02 04:56:38;;;;;;;17.27;13.23;;;3.30;99.90;;;;;;5110640;28;20182;-88
2022/01/02 04:59:03;;;;;;;16.40;12.80;;;3.30;99.90;;;;;;5110755;28;20661;-84
2022/01/02 05:01:29;;;;;;;15.17;12.67;;;3.20;99.90;;;;;;5092619;28;20180;-85
2022/01/02 05:03:55;;;;;;;13.47;12.00;;;3.20;99.90;;;;;;5111015;28;20175;-87
2022/01/02 05:06:21;;;;;;;15.90;12.23;;;3.10;99.90;;;;;;5110573;28;20273;-85
2022/01/02 05:08:47;;;;;;;14.93;12.90;;;3.10;99.90;;;;;;5112352;28;20220;-85
2022/01/02 05:11:13;;;;;;;14.67;12.13;;;3.10;99.90;;;;;;5114735;28;20177;-85
2022/01/02 05:13:40;;;;;;;15.23;12.03;;;3.10;99.90;;;;;;5114799;28;20272;-85
2022/01/02 05:16:06;;;;;;;14.57;12.27;;;3.10;99.90;;;;;;5114694;28;20171;-84
2022/01/02 05:18:32;;;;;;;12.67;11.33;;;3.10;99.90;;;;;;5114606;28;20455;-84
2022/01/02 05:20:58;;;;;;;12.40;10.63;;;3.10;99.90;;;;;;5096134;28;20517;-85
2022/01/02 05:23:24;;;;;;;12.47;10.97;;;3.10;99.90;;;;;;5114796;28;20172;-84
2022/01/02 05:25:50;;;;;;;13.33;11.63;;;2.90;99.90;;;;;;5125011;28;20228;-85
2022/01/02 05:28:16;;;;;;;13.73;11.60;;;2.90;99.90;;;;;;5137538;28;20176;-85
2022/01/02 05:30:42;;;;;;;13.47;11.83;;;2.90;99.90;;;;;;5131578;28;20170;-94
2022/01/02 05:33:10;;;;;;;12.73;11.23;;;2.90;99.90;;;;;;5100136;28;20513;-93
2022/01/02 05:35:36;;;;;;;13.13;11.73;;;2.90;99.90;;;;;;5117888;28;20172;-92
2022/01/02 05:38:03;;;;;;;14.27;11.67;;;2.90;99.90;;;;;;5117864;28;20179;-93
2022/01/02 05:40:31;;;;;;;14.33;11.03;;;2.80;99.90;;;;;;5098682;28;20182;-85
2022/01/02 05:43:06;;;;;;;12.70;10.73;;;2.80;99.90;;;;;;5114205;28;20506;-85
2022/01/02 05:45:33;;;;;;;12.80;11.40;;;2.80;99.90;;;;;;5113942;28;20166;-85
2022/01/02 05:48:00;;;;;;;14.60;12.00;;;2.80;99.90;;;;;;5113905;28;20173;-84
2022/01/02 05:50:26;;;;;;;13.93;11.57;;;2.80;99.90;;;;;;5113848;28;20196;-85
2022/01/02 05:52:52;;;;;;;13.83;11.43;;;2.70;99.90;;;;;;5116153;28;20256;-92
2022/01/02 05:55:18;;;;;;;14.80;12.13;;;2.60;99.90;;;;;;5114227;28;20183;-84
2022/01/02 05:57:44;;;;;;;13.73;11.70;;;2.50;99.90;;;;;;5113876;28;20176;-84
2022/01/02 06:00:10;;;;;;;14.00;11.43;;;2.60;99.90;;;;;;5097529;28;20184;-92
2022/01/02 06:02:36;;;;;;;14.53;11.67;;;2.60;99.90;;;;;;5098364;28;20207;-91
2022/01/02 06:05:03;;;;;;;11.60;10.50;;;2.60;99.90;;;;;;5114125;28;20264;-85
2022/01/02 06:07:32;;;;;;;13.87;10.77;;;2.70;99.90;;;;;;5114621;28;20172;-84
2022/01/02 06:09:58;;;;;;;12.53;11.10;;;2.70;99.90;;;;;;5113552;28;20208;-85
2022/01/02 06:12:23;;;;;;;12.60;10.90;;;2.60;99.90;;;;;;5113801;28;20204;-84
2022/01/02 06:14:50;;;;;;;15.20;12.07;;;2.50;99.90;;;;;;5113488;28;20232;-85
2022/01/02 06:17:16;;;;;;;12.60;11.30;;;2.40;99.90;;;;;;5113380;28;20251;-84
2022/01/02 06:19:42;;;;;;;13.03;11.53;;;2.40;99.90;;;;;;5113442;28;20699;-85
2022/01/02 06:22:07;;;;;;;12.77;11.03;;;2.40;99.90;;;;;;5113266;28;20180;-85
2022/01/02 06:24:33;;;;;;;12.13;10.83;;;2.40;99.90;;;;;;5113418;28;20886;-85
2022/01/02 06:26:59;;;;;;;11.70;10.30;;;2.40;99.90;;;;;;5113760;28;20216;-85
2022/01/02 06:29:26;;;;;;;10.93;9.77;;;2.40;99.90;;;;;;5119187;28;20208;-88
2022/01/02 06:31:52;;;;;;;11.90;9.27;;;2.50;99.90;;;;;;5119542;28;20173;-92
2022/01/02 06:34:18;;;;;;;9.77;8.77;;;2.50;99.90;;;;;;5095815;28;20310;-85
2022/01/02 06:36:44;;;;;;;10.33;9.30;;;2.50;99.90;;;;;;5095053;28;20184;-87
2022/01/02 06:39:09;;;;;;;10.57;9.50;;;2.40;99.90;;;;;;5095605;28;20188;-85
2022/01/02 06:41:35;;;;;;;10.47;9.47;;;2.50;99.90;;;;;;5114372;28;20199;-88
2022/01/02 06:44:01;;;;;;;16.90;9.63;;;2.50;99.90;;;;;;5113770;28;20179;-86
2022/01/02 06:46:27;;;;;;;10.33;9.33;;;2.50;99.90;;;;;;5114033;28;20258;-87
2022/01/02 06:48:54;;;;;;;10.80;9.70;;;2.40;99.90;;;;;;5113486;28;20203;-85
2022/01/02 06:51:20;;;;;;;10.87;9.77;;;2.40;99.90;;;;;;5113639;28;20202;-85
2022/01/02 06:53:46;;;;;;;10.03;8.80;;;2.30;99.90;;;;;;5113079;28;20194;-85
2022/01/02 06:56:12;;;;;;;14.17;9.83;;;2.40;99.90;;;;;;5112957;28;20185;-85
2022/01/02 06:58:39;;;;;;;18.20;9.33;;;2.40;99.90;;;;;;5094979;28;20169;-85
2022/01/02 07:01:05;;;;;;;17.07;9.27;;;2.40;99.90;;;;;;5113042;28;20206;-86
2022/01/02 07:03:35;;;;;;;21.03;9.80;;;2.40;99.90;;;;;;5094606;28;20184;-84
2022/01/02 07:06:00;;;;;;;29.50;9.47;;;2.40;99.90;;;;;;5112825;28;20263;-85
2022/01/02 07:08:28;;;;;;;15.40;9.27;;;2.40;99.90;;;;;;5112415;28;20642;-84
2022/01/02 07:10:57;;;;;;;21.43;9.87;;;2.30;99.90;;;;;;5094410;28;20181;-85
2022/01/02 07:13:23;;;;;;;34.27;10.20;;;2.40;99.90;;;;;;5119538;28;20254;-87
2022/01/02 07:15:50;;;;;;;21.83;10.63;;;2.40;99.90;;;;;;5131916;28;20168;-86
2022/01/02 07:18:16;;;;;;;12.93;9.90;;;2.40;99.90;;;;;;5131400;28;20197;-88
2022/01/02 07:20:42;;;;;;;13.30;10.10;;;2.40;99.90;;;;;;5114587;28;20499;-86
2022/01/02 07:23:07;;;;;;;9.83;8.80;;;2.40;99.90;;;;;;5114907;28;20278;-92
2022/01/02 07:25:33;;;;;;;10.73;9.57;;;2.30;99.90;;;;;;5092868;28;20232;-93
2022/01/02 07:27:59;;;;;;;12.47;9.00;;;2.40;99.90;;;;;;5094233;28;20679;-94
2022/01/02 07:30:25;;;;;;;10.93;9.70;;;2.30;99.90;;;;;;5094129;28;20680;-93
2022/01/02 07:32:51;;;;;;;11.17;8.90;;;2.30;99.90;;;;;;5093988;28;20175;-91
2022/01/02 07:35:17;;;;;;;11.60;9.77;;;2.40;99.90;;;;;;5093923;28;20204;-93
2022/01/02 07:37:43;;;;;;;9.57;8.67;;;2.40;99.90;;;;;;5094401;28;20222;-94
2022/01/02 07:40:09;;;;;;;11.37;9.93;;;2.40;99.90;;;;;;5092952;28;20167;-92
2022/01/02 07:42:35;;;;;;;10.33;9.03;;;2.30;99.90;;;;;;5093683;28;20177;-92
2022/01/02 07:45:01;;;;;;;9.07;8.07;;;2.40;99.90;;;;;;5094470;28;20245;-92
2022/01/02 07:47:27;;;;;;;9.33;8.23;;;2.40;99.90;;;;;;5093953;28;20171;-91
2022/01/02 07:49:53;;;;;;;10.17;8.50;;;2.40;99.90;;;;;;5093298;28;20262;-91
2022/01/02 07:52:18;;;;;;;9.73;8.73;;;2.50;99.90;;;;;;5093630;28;20545;-90
2022/01/02 07:54:44;;;;;;;10.20;9.20;;;2.50;99.90;;;;;;5091952;28;20186;-94
2022/01/02 07:57:10;;;;;;;10.83;9.43;;;2.50;99.90;;;;;;5093223;28;20256;-91
2022/01/02 07:59:36;;;;;;;12.47;10.20;;;2.40;99.90;;;;;;5093408;28;20187;-88
2022/01/02 08:02:01;;;;;;;12.37;10.37;;;2.40;99.90;;;;;;5093140;28;20185;-87
2022/01/02 08:04:27;;;;;;;11.70;10.43;;;2.40;99.90;;;;;;5094488;28;20168;-87
2022/01/02 08:06:53;;;;;;;10.63;9.57;;;2.60;99.90;;;;;;5097170;28;20267;-90
2022/01/02 08:09:19;;;;;;;10.30;9.30;;;2.60;99.90;;;;;;5095425;28;20262;-88
2022/01/02 08:11:45;;;;;;;9.83;8.83;;;2.60;99.90;;;;;;5093510;28;20175;-91
2022/01/02 08:14:11;;;;;;;10.13;9.07;;;2.60;99.90;;;;;;5093029;28;20191;-91
2022/01/02 08:16:37;;;;;;;9.53;8.50;;;2.60;99.90;;;;;;5093299;28;20165;-93
2022/01/02 08:19:05;;;;;;;9.97;9.07;;;2.70;99.90;;;;;;5093883;28;20187;-94
2022/01/02 08:21:31;;;;;;;11.47;9.63;;;2.70;99.90;;;;;;5095155;28;20172;-93
2022/01/02 08:23:57;;;;;;;9.77;8.87;;;2.80;99.90;;;;;;5096637;28;20172;-92
2022/01/02 08:26:25;;;;;;;10.40;9.03;;;2.90;99.90;;;;;;5108097;28;20314;-93
2022/01/02 08:28:51;;;;;;;10.50;9.40;;;2.90;99.90;;;;;;5113980;28;20197;-93
2022/01/02 08:31:17;;;;;;;9.80;8.77;;;2.90;99.90;;;;;;5134421;28;20173;-91
2022/01/02 08:33:43;;;;;;;10.47;9.07;;;2.90;99.90;;;;;;5135798;28;20161;-92
2022/01/02 08:36:09;;;;;;;10.10;9.10;;;3.00;99.90;;;;;;5111854;28;20974;-92
2022/01/02 08:38:36;;;;;;;10.33;8.57;;;3.00;99.90;;;;;;5125930;28;20166;-93
2022/01/02 08:41:02;;;;;;;9.33;8.43;;;3.00;99.90;;;;;;5119497;28;20536;-93
2022/01/02 08:43:28;;;;;;;8.30;7.60;;;3.10;99.90;;;;;;5117042;28;20168;-94
2022/01/02 08:45:54;;;;;;;9.07;8.17;;;3.20;99.90;;;;;;5114909;28;20177;-92
2022/01/02 08:48:20;;;;;;;9.10;8.20;;;3.30;99.90;;;;;;5113726;28;20176;-93
2022/01/02 08:50:45;;;;;;;8.93;8.13;;;3.40;99.90;;;;;;5096213;28;20184;-93
2022/01/02 08:53:11;;;;;;;9.03;8.13;;;3.40;99.90;;;;;;5096471;28;20219;-92
2022/01/02 08:55:37;;;;;;;9.00;8.10;;;3.40;99.90;;;;;;5114985;28;20184;-94
2022/01/02 08:58:03;;;;;;;8.93;8.10;;;3.40;99.90;;;;;;5095557;28;20262;-86
2022/01/02 09:00:32;;;;;;;8.67;7.87;;;3.40;99.90;;;;;;5118141;28;20172;-85
2022/01/02 09:02:58;;;;;;;9.73;8.83;;;3.40;99.90;;;;;;5130692;28;20172;-85
2022/01/02 09:05:25;;;;;;;10.37;9.37;;;3.40;99.90;;;;;;5122309;28;20231;-94
2022/01/02 09:07:51;;;;;;;10.23;9.23;;;3.50;99.90;;;;;;5113648;28;20623;-91
2022/01/02 09:10:18;;;;;;;9.93;8.93;;;3.60;99.90;;;;;;5113562;28;20307;-93
2022/01/02 09:12:45;;;;;;;10.13;9.23;;;3.60;99.90;;;;;;5113633;28;20186;-91
2022/01/02 09:15:11;;;;;;;9.83;8.80;;;3.60;99.90;;;;;;5113709;28;20256;-93
2022/01/02 09:17:38;;;;;;;10.40;9.40;;;3.70;99.90;;;;;;5113728;28;20171;-93
2022/01/02 09:20:08;;;;;;;10.70;9.67;;;3.80;99.90;;;;;;5115435;28;20171;-94
2022/01/02 09:22:34;;;;;;;10.77;9.77;;;3.90;99.90;;;;;;5111540;28;20607;-91
2022/01/02 09:25:00;;;;;;;10.23;9.20;;;3.90;99.90;;;;;;5113232;28;20586;-91
2022/01/02 09:27:27;;;;;;;10.57;9.57;;;3.90;99.90;;;;;;5112908;28;20250;-93
2022/01/02 09:29:52;;;;;;;11.03;9.93;;;4.00;99.90;;;;;;5112663;28;20219;-90
2022/01/02 09:32:18;;;;;;;10.63;9.53;;;4.00;99.90;;;;;;5111551;28;20177;-86
2022/01/02 09:34:45;;;;;;;9.47;8.57;;;4.00;99.90;;;;;;5109815;28;20180;-93
2022/01/02 09:37:11;;;;;;;10.60;8.80;;;4.00;99.90;;;;;;5093139;28;20207;-86
2022/01/02 09:39:37;;;;;;;10.43;9.33;;;4.10;99.90;;;;;;5112093;28;20221;-89
2022/01/02 09:42:04;;;;;;;9.57;8.67;;;4.10;99.90;;;;;;5111813;28;20169;-89
2022/01/02 09:44:31;;;;;;;10.27;9.27;;;4.10;99.90;;;;;;5113768;28;20184;-86
2022/01/02 09:46:58;;;;;;;12.47;9.63;;;4.20;99.90;;;;;;5112169;28;20256;-90
2022/01/02 09:49:24;;;;;;;11.20;9.83;;;4.20;99.90;;;;;;5111423;28;20213;-92
2022/01/02 09:51:51;;;;;;;11.33;10.13;;;4.20;99.90;;;;;;5111673;28;20176;-89
2022/01/02 09:54:16;;;;;;;11.67;10.33;;;4.30;99.90;;;;;;5128938;28;20174;-89
2022/01/02 09:56:42;;;;;;;11.17;9.97;;;4.30;99.90;;;;;;5137042;28;20180;-90
2022/01/02 09:59:08;;;;;;;11.33;9.80;;;4.30;99.90;;;;;;5134095;28;20211;-94
2022/01/02 10:01:34;;;;;;;10.40;9.27;;;4.40;99.90;;;;;;5116810;28;20176;-94
2022/01/02 10:04:00;;;;;;;13.03;9.10;;;4.40;99.90;;;;;;5116370;28;20176;-92
2022/01/02 10:06:56;;;;;;;10.60;9.50;;;4.40;99.90;;;;;;5116015;28;20164;-90
2022/01/02 10:09:38;;;;;;;10.13;9.07;;;4.50;99.90;;;;;;5094833;28;20217;-88
2022/01/02 10:12:28;;;;;;;10.70;9.60;;;4.60;99.90;;;;;;5097506;28;20172;-93
2022/01/02 10:15:14;;;;;;;11.23;9.93;;;4.60;99.90;;;;;;5115707;28;20171;-94
2022/01/02 10:18:01;;;;;;;13.13;10.10;;;4.70;99.90;;;;;;5115480;28;20181;-91
2022/01/02 10:20:34;;;;;;;10.93;9.80;;;4.80;99.90;;;;;;5115402;28;20234;-87
2022/01/02 10:23:01;;;;;;;11.77;9.63;;;4.80;99.90;;;;;;5115596;28;20532;-87
2022/01/02 10:25:59;;;;;;;12.27;8.80;;;4.80;99.90;;;;;;5115817;28;20214;-89
2022/01/02 10:28:35;;;;;;;12.07;10.07;;;4.90;99.90;;;;;;5099974;28;20181;-94
2022/01/02 10:31:09;;;;;;;18.07;10.13;;;5.00;99.90;;;;;;5116828;28;20225;-92
2022/01/02 10:33:54;;;;;;;11.90;9.77;;;5.20;99.90;;;;;;5095347;28;20176;-93
2022/01/02 10:36:37;;;;;;;11.43;9.67;;;5.20;99.90;;;;;;5115775;28;20178;-93
2022/01/02 10:39:10;;;;;;;11.30;10.13;;;5.20;99.90;;;;;;5097627;28;20302;-92
2022/01/02 10:41:45;;;;;;;11.10;9.90;;;5.20;99.90;;;;;;5096195;28;20177;-92
2022/01/02 10:44:41;;;;;;;15.00;10.90;;;5.30;99.90;;;;;;5079092;28;20280;-87
2022/01/02 10:47:21;;;;;;;11.43;10.30;;;5.30;99.90;;;;;;4993684;28;20272;-84
2022/01/02 10:50:07;;;;;;;14.20;11.57;;;5.40;99.90;;;;;;5002736;28;20227;-85
2022/01/02 10:52:38;;;;;;;17.30;11.43;;;5.50;99.90;;;;;;5028183;28;20184;-88
2022/01/02 10:55:22;;;;;;;13.27;11.07;;;5.60;99.90;;;;;;5007926;28;20169;-85
2022/01/02 10:57:49;;;;;;;12.37;10.93;;;5.70;99.90;;;;;;5017973;28;20652;-87
2022/01/02 11:00:19;;;;;;;14.57;11.17;;;5.80;99.90;;;;;;5011297;28;20196;-89
2022/01/02 11:02:45;;;;;;;14.20;10.70;;;5.80;99.90;;;;;;5010769;28;20166;-87
2022/01/02 11:05:14;;;;;;;13.07;10.10;;;5.90;99.90;;;;;;4994475;28;20246;-90
2022/01/02 11:07:45;;;;;;;13.03;10.57;;;6.00;99.90;;;;;;4994422;28;20693;-91
2022/01/02 11:10:16;;;;;;;10.10;9.17;;;6.00;99.90;;;;;;5010831;28;20328;-88
2022/01/02 11:12:45;;;;;;;11.67;9.80;;;6.10;99.90;;;;;;5011058;28;20176;-86
2022/01/02 11:15:16;;;;;;;11.77;10.47;;;6.00;99.90;;;;;;4995387;28;20313;-86
2022/01/02 11:17:43;;;;;;;12.93;9.83;;;6.10;99.90;;;;;;5025230;28;20214;-86
2022/01/02 11:20:17;;;;;;;11.43;9.37;;;6.10;99.90;;;;;;5041971;28;20170;-86
2022/01/02 11:23:00;;;;;;;12.00;9.60;;;6.10;99.90;;;;;;5025852;28;20188;-89
2022/01/02 11:25:40;;;;;;;11.87;9.60;;;6.20;99.90;;;;;;5116579;28;20690;-87
2022/01/02 11:28:25;;;;;;;9.63;8.63;;;6.20;99.90;;;;;;5098158;28;20174;-86
2022/01/02 11:30:52;;;;;;;9.80;8.80;;;6.20;99.90;;;;;;5114851;28;20175;-85
2022/01/02 11:33:19;;;;;;;10.57;8.43;;;6.30;99.90;;;;;;5096382;28;20176;-86
2022/01/02 11:35:48;;;;;;;9.03;7.90;;;6.30;99.90;;;;;;5117630;28;20169;-85
2022/01/02 11:38:17;;;;;;;10.60;8.67;;;6.40;99.90;;;;;;5115954;28;20263;-89
2022/01/02 11:40:42;;;;;;;10.63;8.80;;;6.50;99.90;;;;;;5114839;28;20171;-86
2022/01/02 11:43:08;;;;;;;10.33;9.27;;;6.50;99.90;;;;;;5114537;28;20178;-86
2022/01/02 11:45:39;;;;;;;13.00;11.67;;;6.60;99.90;;;;;;5114593;28;20174;-88
2022/01/02 11:48:25;;;;;;;10.07;9.07;;;6.70;99.90;;;;;;5114619;28;20163;-87
2022/01/02 11:50:51;;;;;;;9.90;8.33;;;6.80;99.90;;;;;;5114565;28;20184;-88
2022/01/02 11:53:23;;;;;;;9.37;8.43;;;6.80;99.90;;;;;;5114914;28;20245;-93
2022/01/02 11:55:51;;;;;;;11.90;8.10;;;6.90;99.90;;;;;;5098002;28;20172;-93
2022/01/02 11:58:46;;;;;;;9.10;8.20;;;6.90;99.90;;;;;;5099996;28;20205;-92
2022/01/02 12:01:46;;;;;;;9.20;8.23;;;6.90;99.90;;;;;;5117287;28;20165;-94
2022/01/02 12:04:12;;;;;;;8.67;7.90;;;7.00;99.90;;;;;;5115104;28;20158;-92
2022/01/02 12:06:38;;;;;;;10.23;8.10;;;7.00;99.90;;;;;;5114767;28;20166;-92
2022/01/02 12:09:27;;;;;;;10.33;8.27;;;7.00;99.90;;;;;;5114700;28;20284;-94
2022/01/02 12:11:59;;;;;;;10.00;9.00;;;7.00;99.90;;;;;;5094551;28;20198;-94
2022/01/02 12:14:25;;;;;;;9.87;8.97;;;7.10;99.90;;;;;;5109881;28;20166;-92
2022/01/02 12:16:57;;;;;;;9.33;8.33;;;7.10;99.90;;;;;;5094154;28;20172;-93
2022/01/02 12:19:24;;;;;;;9.43;8.43;;;7.20;99.90;;;;;;5094453;28;20536;-94
2022/01/02 12:22:11;;;;;;;11.13;9.10;;;7.30;99.90;;;;;;5094326;28;20577;-85
2022/01/02 12:24:37;;;;;;;14.23;8.67;;;7.40;99.90;;;;;;5092968;28;20280;-86
2022/01/02 12:27:11;;;;;;;9.50;8.50;;;7.50;99.90;;;;;;5093237;28;20217;-90
2022/01/02 12:29:38;;;;;;;10.70;8.90;;;7.60;99.90;;;;;;5093440;28;20211;-88
2022/01/02 12:32:06;;;;;;;9.10;8.13;;;7.70;99.90;;;;;;5092966;28;20161;-86
2022/01/02 12:34:32;;;;;;;10.43;9.03;;;7.80;99.90;;;;;;5093549;28;20180;-90
2022/01/02 12:36:58;;;;;;;9.47;8.53;;;7.80;99.90;;;;;;5093691;28;20163;-89
2022/01/02 12:39:28;;;;;;;9.27;8.37;;;7.80;99.90;;;;;;5098664;28;20196;-85
2022/01/02 12:42:00;;;;;;;9.03;8.03;;;7.90;99.90;;;;;;5111072;28;20193;-84
2022/01/02 12:44:29;;;;;;;9.30;8.13;;;8.00;99.90;;;;;;5115926;28;20161;-88
2022/01/02 12:46:57;;;;;;;9.83;8.83;;;8.00;99.90;;;;;;5112328;28;20166;-88
2022/01/02 12:49:30;;;;;;;10.07;8.60;;;8.00;99.90;;;;;;5113885;28;20365;-86
2022/01/02 12:52:01;;;;;;;10.63;8.37;;;8.00;99.90;;;;;;5094768;28;20165;-85
2022/01/02 12:54:31;;;;;;;11.13;8.30;;;8.00;99.90;;;;;;5109028;28;20530;-94
2022/01/02 12:57:08;;;;;;;9.83;8.90;;;8.10;99.90;;;;;;5093874;28;20169;-89
2022/01/02 12:59:57;;;;;;;9.90;8.27;;;8.20;99.90;;;;;;5109008;28;20181;-91